Time;durP1;ratioP1;P1;durP2;ratioP2;P2;SDS_P1;SDS_P2;PMS_P1;PMS_P2;Temp;Humidity;BMP_temperature;BMP_pressure;BME280_temperature;BME280_humidity;BME280_pressure;Samples;Min_cycle;Max_cycle;Signal;HPM_P1;HPM_P2
2022/10/03 00:03:34;;;;;;;2.90;2.60;;;15.00;51.60;;;;;;10483239;28;20228;-78
2022/10/03 00:08:56;;;;;;;3.57;2.50;;;15.10;51.70;;;;;;10487261;28;20237;-78
2022/10/03 00:14:05;;;;;;;3.07;2.80;;;15.10;51.50;;;;;;10482828;28;20480;-78
2022/10/03 00:19:17;;;;;;;2.60;2.40;;;15.10;51.40;;;;;;10485946;28;20324;-78
2022/10/03 00:24:30;;;;;;;3.03;2.73;;;15.10;51.40;;;;;;10479052;28;20229;-78
2022/10/03 00:30:01;;;;;;;3.20;2.80;;;15.10;51.20;;;;;;10482132;28;20232;-78
2022/10/03 00:35:19;;;;;;;3.00;2.80;;;15.00;51.30;;;;;;10483150;28;20224;-78
2022/10/03 00:41:05;;;;;;;3.33;3.00;;;15.00;51.20;;;;;;10473023;28;20262;-78
2022/10/03 00:46:40;;;;;;;2.30;2.20;;;15.00;51.10;;;;;;10479479;28;20227;-78
2022/10/03 00:52:02;;;;;;;3.10;2.90;;;14.90;51.00;;;;;;10451231;28;20243;-78
2022/10/03 00:57:36;;;;;;;3.27;2.97;;;14.90;51.00;;;;;;10478872;28;20220;-78
2022/10/03 01:03:07;;;;;;;3.20;3.00;;;14.90;51.20;;;;;;10483034;28;20234;-78
2022/10/03 01:08:43;;;;;;;3.67;3.40;;;14.90;51.20;;;;;;10476085;28;20236;-78
2022/10/03 01:13:58;;;;;;;5.07;3.03;;;14.80;51.20;;;;;;10471960;28;20224;-78
2022/10/03 01:19:19;;;;;;;4.20;3.47;;;14.90;51.40;;;;;;10480166;28;21145;-78
2022/10/03 01:24:38;;;;;;;3.73;3.43;;;14.90;51.50;;;;;;10476967;28;20764;-78
2022/10/03 01:35:24;;;;;;;4.00;3.60;;;14.80;51.80;;;;;;10477134;28;20341;-77
2022/10/03 01:40:32;;;;;;;3.97;3.67;;;14.80;51.80;;;;;;10475072;28;20728;-78
2022/10/03 01:45:55;;;;;;;4.77;4.10;;;14.80;51.80;;;;;;10487810;28;20364;-78
2022/10/03 01:51:06;;;;;;;4.37;3.97;;;14.80;52.10;;;;;;10466630;28;20269;-78
2022/10/03 01:56:18;;;;;;;4.23;3.83;;;14.90;52.00;;;;;;10473662;28;20227;-78
2022/10/03 02:01:28;;;;;;;4.07;3.67;;;14.90;51.90;;;;;;10477412;28;20236;-78
2022/10/03 02:06:43;;;;;;;4.67;4.00;;;14.90;51.70;;;;;;10477359;28;20232;-77
2022/10/03 02:12:02;;;;;;;4.50;4.10;;;14.90;51.70;;;;;;10476331;28;20224;-78
2022/10/03 02:17:13;;;;;;;4.37;4.07;;;14.90;51.80;;;;;;10483881;28;20240;-78
2022/10/03 02:22:30;;;;;;;4.40;3.90;;;14.90;51.70;;;;;;10476880;28;20725;-78
2022/10/03 02:27:51;;;;;;;5.33;4.47;;;14.90;52.20;;;;;;10472202;28;20602;-78
2022/10/03 02:33:30;;;;;;;5.10;4.60;;;14.80;51.90;;;;;;10479699;28;20232;-78
2022/10/03 02:38:48;;;;;;;6.07;4.70;;;14.80;52.10;;;;;;10477598;28;20236;-78
2022/10/03 02:44:24;;;;;;;5.50;4.73;;;14.80;52.10;;;;;;10476179;28;20220;-78
2022/10/03 02:49:59;;;;;;;5.60;5.10;;;14.80;52.00;;;;;;10472565;28;20282;-78
2022/10/03 02:55:27;;;;;;;4.73;4.33;;;14.80;51.80;;;;;;10475361;28;20227;-78
2022/10/03 03:00:44;;;;;;;5.57;4.57;;;14.80;51.90;;;;;;10480208;28;20240;-78
2022/10/03 03:06:21;;;;;;;8.83;5.23;;;14.80;51.80;;;;;;10475368;28;20220;-78
2022/10/03 03:12:01;;;;;;;5.27;4.70;;;14.80;51.90;;;;;;10479242;28;20228;-78
2022/10/03 03:17:18;;;;;;;5.53;5.03;;;14.80;51.90;;;;;;10467612;28;20229;-78
2022/10/03 03:22:38;;;;;;;5.77;5.17;;;14.80;51.80;;;;;;10490128;28;20339;-78
2022/10/03 03:27:51;;;;;;;5.63;5.13;;;14.80;51.80;;;;;;10487233;28;20884;-78
2022/10/03 03:33:08;;;;;;;5.73;5.13;;;14.80;51.80;;;;;;10480057;28;20239;-78
2022/10/03 03:38:27;;;;;;;6.03;5.20;;;14.80;51.90;;;;;;10480920;28;20285;-78
2022/10/03 03:43:44;;;;;;;5.63;4.97;;;14.80;52.00;;;;;;10483485;28;20229;-79
2022/10/03 03:49:05;;;;;;;6.23;5.60;;;14.80;52.10;;;;;;10487830;28;20275;-78
2022/10/03 03:54:46;;;;;;;6.43;5.90;;;14.90;52.20;;;;;;10480988;28;20255;-78
2022/10/03 04:00:04;;;;;;;6.40;5.80;;;14.90;52.00;;;;;;10485310;28;20232;-78
2022/10/03 04:05:21;;;;;;;5.60;5.10;;;14.90;52.00;;;;;;10478283;28;20231;-78
2022/10/03 04:10:41;;;;;;;5.73;5.07;;;14.90;52.00;;;;;;10480099;28;20586;-78
2022/10/03 04:16:05;;;;;;;5.53;5.00;;;14.90;51.80;;;;;;10481970;28;20235;-78
2022/10/03 04:21:30;;;;;;;8.27;6.23;;;14.90;51.70;;;;;;10483788;28;20853;-78
2022/10/03 04:26:45;;;;;;;7.67;6.17;;;14.90;51.70;;;;;;10484400;28;20235;-77
2022/10/03 04:32:00;;;;;;;6.10;5.47;;;14.90;52.30;;;;;;10490292;28;20725;-78
2022/10/03 04:37:17;;;;;;;6.80;6.10;;;14.90;51.50;;;;;;10479093;28;20655;-78
2022/10/03 04:42:38;;;;;;;6.20;5.67;;;14.90;51.60;;;;;;10478502;28;20239;-79
2022/10/03 04:47:48;;;;;;;6.77;6.10;;;14.90;51.60;;;;;;10480495;28;20237;-78
2022/10/03 04:53:04;;;;;;;7.03;6.43;;;14.90;51.60;;;;;;10486566;28;20225;-78
2022/10/03 04:58:25;;;;;;;8.43;6.00;;;15.00;51.40;;;;;;10475300;28;20289;-78
2022/10/03 05:03:42;;;;;;;6.77;5.90;;;15.00;51.20;;;;;;10485883;28;20243;-78
2022/10/03 05:08:57;;;;;;;6.80;6.20;;;14.90;51.20;;;;;;10483923;28;20639;-78
2022/10/03 05:14:10;;;;;;;7.33;6.40;;;14.90;51.10;;;;;;10483610;28;20223;-78
2022/10/03 05:19:47;;;;;;;6.90;6.30;;;14.90;51.00;;;;;;10479893;28;20232;-78
2022/10/03 05:24:56;;;;;;;7.27;6.33;;;14.90;51.00;;;;;;10474518;28;20272;-78
2022/10/03 05:30:07;;;;;;;7.67;6.93;;;14.90;50.80;;;;;;10477933;28;20282;-78
2022/10/03 05:35:29;;;;;;;7.20;6.50;;;14.90;50.80;;;;;;10483932;28;20228;-78
2022/10/03 05:40:35;;;;;;;7.17;6.53;;;14.90;50.80;;;;;;10475866;28;20243;-78
2022/10/03 05:45:48;;;;;;;7.67;6.90;;;14.90;50.60;;;;;;10479356;28;20286;-78
2022/10/03 05:51:13;;;;;;;7.93;7.23;;;14.80;50.50;;;;;;10475007;28;20244;-78
2022/10/03 05:56:31;;;;;;;8.80;7.57;;;14.70;50.60;;;;;;10476974;28;20696;-78
2022/10/03 06:02:22;;;;;;;6.97;6.27;;;14.70;50.70;;;;;;10480325;28;20232;-78
2022/10/03 06:07:29;;;;;;;8.83;6.83;;;14.70;51.00;;;;;;10416560;28;20809;-78
2022/10/03 06:12:42;;;;;;;8.27;7.40;;;14.70;51.00;;;;;;10459784;28;20225;-75
2022/10/03 06:18:05;;;;;;;8.73;7.07;;;14.70;51.30;;;;;;10462492;28;20680;-74
2022/10/03 06:23:31;;;;;;;6.97;6.27;;;14.70;51.50;;;;;;10464652;28;20236;-75
2022/10/03 06:29:09;;;;;;;7.83;6.77;;;14.90;51.70;;;;;;10474521;28;20236;-75
2022/10/03 06:34:42;;;;;;;10.60;7.10;;;14.80;51.40;;;;;;10466933;28;20229;-75
2022/10/03 06:40:26;;;;;;;7.80;7.00;;;14.80;50.90;;;;;;10463172;28;20240;-75
2022/10/03 06:46:05;;;;;;;8.30;7.13;;;14.80;51.20;;;;;;10432762;28;20217;-75
2022/10/03 06:51:41;;;;;;;9.07;7.50;;;14.80;51.30;;;;;;10464964;28;20224;-75
2022/10/03 06:57:11;;;;;;;8.60;6.73;;;14.80;51.50;;;;;;10457908;28;20228;-76
2022/10/03 07:02:54;;;;;;;9.07;7.10;;;14.80;51.50;;;;;;10477167;28;20259;-75
2022/10/03 07:08:35;;;;;;;9.60;6.87;;;14.80;51.20;;;;;;10465360;28;20285;-75
2022/10/03 07:14:15;;;;;;;11.03;7.57;;;14.80;51.70;;;;;;10474617;28;20501;-75
2022/10/03 07:20:01;;;;;;;9.10;7.77;;;14.80;51.80;;;;;;10415418;28;20236;-75
2022/10/03 07:25:29;;;;;;;8.43;7.40;;;14.80;51.60;;;;;;10473316;28;20376;-75
2022/10/03 07:30:48;;;;;;;8.10;6.97;;;14.80;51.60;;;;;;10469952;28;20228;-75
2022/10/03 07:42:08;;;;;;;7.00;6.30;;;14.80;52.10;;;;;;10466947;28;20228;-76
2022/10/03 07:47:56;;;;;;;11.43;7.43;;;14.90;52.20;;;;;;10464952;28;20642;-76
2022/10/03 07:53:16;;;;;;;9.00;6.43;;;15.00;51.80;;;;;;10468651;28;20733;-76
2022/10/03 07:58:37;;;;;;;9.97;6.60;;;15.20;51.60;;;;;;10470411;28;20227;-76
2022/10/03 08:04:09;;;;;;;9.90;6.27;;;15.30;51.30;;;;;;10466723;28;20228;-76
2022/10/03 08:09:47;;;;;;;6.57;5.90;;;15.40;51.00;;;;;;10469144;28;20273;-76
2022/10/03 08:15:03;;;;;;;7.30;5.50;;;15.50;50.70;;;;;;10456503;28;20270;-76
2022/10/03 08:20:25;;;;;;;7.57;6.00;;;15.60;50.80;;;;;;10475215;28;20221;-76
2022/10/03 08:25:36;;;;;;;8.10;5.63;;;15.70;50.20;;;;;;10471071;28;20235;-77
2022/10/03 08:31:04;;;;;;;9.67;6.07;;;15.80;50.40;;;;;;10469958;28;20233;-79
2022/10/03 08:36:29;;;;;;;8.83;6.07;;;15.80;48.90;;;;;;10458200;28;20879;-78
2022/10/03 08:42:07;;;;;;;7.93;6.70;;;15.90;49.80;;;;;;10459437;28;20235;-79
2022/10/03 08:47:30;;;;;;;6.40;5.10;;;15.90;49.50;;;;;;10456733;28;20804;-78
2022/10/03 08:52:50;;;;;;;5.50;3.40;;;16.00;48.80;;;;;;10459817;28;20239;-77
2022/10/03 08:58:24;;;;;;;6.13;3.37;;;15.90;47.00;;;;;;10464572;28;20254;-77
2022/10/03 09:04:03;;;;;;;8.17;3.63;;;15.90;48.10;;;;;;10415846;28;20228;-80
2022/10/03 09:09:20;;;;;;;7.77;3.20;;;15.90;47.60;;;;;;10456574;28;21310;-80
2022/10/03 09:14:50;;;;;;;7.27;3.33;;;15.90;48.90;;;;;;10460325;28;20235;-77
2022/10/03 09:20:19;;;;;;;5.27;3.20;;;16.00;49.40;;;;;;10460851;28;20744;-79
2022/10/03 09:25:33;;;;;;;4.90;2.50;;;16.30;49.50;;;;;;10450379;28;20247;-77
2022/10/03 09:30:52;;;;;;;5.77;2.37;;;16.50;47.90;;;;;;10459059;28;20652;-78
2022/10/03 09:36:16;;;;;;;7.63;2.10;;;16.60;45.20;;;;;;10458498;28;20220;-76
2022/10/03 09:41:50;;;;;;;4.80;2.67;;;16.60;45.70;;;;;;10463525;28;20246;-76
2022/10/03 09:47:26;;;;;;;5.27;2.27;;;16.70;45.80;;;;;;10460976;28;20224;-76
2022/10/03 09:52:50;;;;;;;4.87;2.27;;;16.80;46.30;;;;;;10462140;28;20228;-76
2022/10/03 09:58:28;;;;;;;5.40;2.13;;;16.90;46.00;;;;;;10467533;28;20224;-76
2022/10/03 10:04:19;;;;;;;7.10;2.53;;;16.90;46.00;;;;;;10420690;28;20232;-75
2022/10/03 10:10:03;;;;;;;5.30;2.40;;;16.90;45.00;;;;;;10391875;28;20310;-79
2022/10/03 10:15:37;;;;;;;7.33;2.13;;;16.90;45.20;;;;;;10472868;28;20232;-81
2022/10/03 10:21:26;;;;;;;3.07;2.10;;;17.00;43.30;;;;;;10466873;28;20227;-77
2022/10/03 10:27:02;;;;;;;4.90;1.77;;;16.90;42.50;;;;;;10472028;28;20236;-77
2022/10/03 10:32:57;;;;;;;6.63;1.90;;;16.90;44.30;;;;;;10466153;28;20266;-78
2022/10/03 10:38:26;;;;;;;4.80;1.70;;;17.00;46.10;;;;;;10472504;28;20231;-78
2022/10/03 10:43:57;;;;;;;3.67;2.20;;;17.30;45.80;;;;;;10473238;28;20224;-78
2022/10/03 10:50:00;;;;;;;6.30;2.00;;;17.50;43.40;;;;;;10469310;28;20225;-78
2022/10/03 10:55:37;;;;;;;3.73;2.00;;;17.60;44.00;;;;;;10469091;28;20586;-78
2022/10/03 11:01:09;;;;;;;3.70;2.10;;;17.60;41.40;;;;;;10464641;28;20926;-78
2022/10/03 11:06:52;;;;;;;4.53;2.43;;;17.40;44.00;;;;;;10468590;28;20221;-78
2022/10/03 11:12:31;;;;;;;5.33;2.60;;;17.50;45.00;;;;;;10464446;28;20277;-78
2022/10/03 11:18:14;;;;;;;5.70;2.37;;;17.70;42.50;;;;;;10461366;28;20224;-79
2022/10/03 11:23:50;;;;;;;3.73;2.40;;;17.80;43.90;;;;;;10469936;28;20232;-78
2022/10/03 11:29:46;;;;;;;3.67;2.47;;;17.90;43.60;;;;;;10454669;28;20225;-78
2022/10/03 11:35:30;;;;;;;3.80;2.20;;;17.90;43.20;;;;;;10463977;28;20225;-78
2022/10/03 11:40:44;;;;;;;4.80;2.23;;;18.00;43.90;;;;;;10469777;28;20235;-78
2022/10/03 11:45:53;;;;;;;3.77;2.47;;;18.10;42.30;;;;;;10482869;28;20232;-78
2022/10/03 11:51:07;;;;;;;3.53;1.83;;;18.00;42.30;;;;;;10470188;28;20225;-78
2022/10/03 11:56:39;;;;;;;3.57;2.10;;;18.00;42.30;;;;;;10476257;28;20233;-78
2022/10/03 12:02:05;;;;;;;2.57;1.90;;;17.90;41.70;;;;;;10471796;28;20228;-80
2022/10/03 12:12:42;;;;;;;4.33;1.77;;;17.80;41.50;;;;;;10469618;28;20236;-77
2022/10/03 12:17:53;;;;;;;4.60;1.90;;;17.80;41.60;;;;;;10467172;28;20228;-76
2022/10/03 12:23:07;;;;;;;2.77;1.73;;;17.80;41.50;;;;;;10466536;28;20241;-76
2022/10/03 12:28:17;;;;;;;3.23;1.80;;;17.80;42.60;;;;;;10470248;28;20343;-76
2022/10/03 12:33:42;;;;;;;5.07;1.73;;;17.80;42.30;;;;;;10473205;28;20236;-77
2022/10/03 12:39:18;;;;;;;2.83;1.80;;;17.90;41.50;;;;;;10469797;28;20233;-76
2022/10/03 12:44:32;;;;;;;3.80;2.10;;;18.00;40.00;;;;;;10471502;28;20233;-77
2022/10/03 12:49:48;;;;;;;2.80;1.80;;;18.00;40.90;;;;;;10465098;28;20225;-77
2022/10/03 12:55:07;;;;;;;3.67;1.80;;;18.00;39.70;;;;;;10476001;28;20245;-76
2022/10/03 13:00:19;;;;;;;3.57;1.70;;;18.00;40.90;;;;;;10462159;28;20263;-77
2022/10/03 13:05:36;;;;;;;2.97;1.70;;;18.00;41.40;;;;;;10490017;28;20243;-76
2022/10/03 13:10:46;;;;;;;3.20;1.70;;;18.00;40.90;;;;;;10482709;28;20240;-77
2022/10/03 13:16:07;;;;;;;3.10;1.70;;;18.00;41.20;;;;;;10464184;28;20229;-77
2022/10/03 13:21:16;;;;;;;2.53;1.60;;;18.00;40.90;;;;;;10463332;28;20286;-76
2022/10/03 13:26:51;;;;;;;4.27;1.50;;;18.10;41.30;;;;;;10471216;28;20256;-77
2022/10/03 13:32:23;;;;;;;2.43;1.30;;;18.10;39.30;;;;;;10469026;28;20297;-74
2022/10/03 13:37:35;;;;;;;2.60;1.27;;;18.10;38.10;;;;;;10456900;28;20237;-77
2022/10/03 13:42:44;;;;;;;2.97;1.57;;;18.20;40.30;;;;;;10468327;28;20232;-77
2022/10/03 13:47:53;;;;;;;2.53;1.20;;;18.20;40.00;;;;;;10468488;28;20249;-77
2022/10/03 13:53:01;;;;;;;1.90;1.50;;;18.20;39.50;;;;;;10465046;28;20288;-78
2022/10/03 13:58:31;;;;;;;2.30;1.50;;;18.30;39.70;;;;;;10476500;28;20228;-78
2022/10/03 14:03:47;;;;;;;1.83;1.40;;;18.30;39.10;;;;;;10461506;28;20608;-77
2022/10/03 14:09:11;;;;;;;2.27;1.47;;;18.30;37.80;;;;;;10472095;28;20235;-78
2022/10/03 14:14:57;;;;;;;2.73;1.40;;;18.30;38.70;;;;;;10471191;28;20233;-78
2022/10/03 14:20:19;;;;;;;3.93;2.10;;;18.30;38.20;;;;;;10464818;28;20228;-78
2022/10/03 14:25:26;;;;;;;4.20;1.70;;;18.30;38.60;;;;;;10468306;28;20255;-78
2022/10/03 14:30:37;;;;;;;2.93;1.73;;;18.30;40.30;;;;;;10476148;28;20686;-79
2022/10/03 14:36:20;;;;;;;4.77;1.90;;;18.30;38.90;;;;;;10470766;28;20264;-78
2022/10/03 14:41:39;;;;;;;2.20;1.43;;;18.40;39.00;;;;;;10477145;28;20228;-78
2022/10/03 14:46:50;;;;;;;3.67;1.60;;;18.50;38.90;;;;;;10484837;28;20300;-78
2022/10/03 14:52:00;;;;;;;2.93;1.37;;;18.50;38.20;;;;;;10471069;28;20228;-77
2022/10/03 14:57:21;;;;;;;2.50;1.50;;;18.50;38.40;;;;;;10468350;28;20231;-76
2022/10/03 15:02:30;;;;;;;2.63;1.47;;;18.50;38.10;;;;;;10465507;28;20235;-77
2022/10/03 15:07:37;;;;;;;2.70;1.70;;;18.60;38.20;;;;;;10466084;28;20286;-77
2022/10/03 15:12:45;;;;;;;2.57;1.50;;;18.60;38.30;;;;;;10465800;28;20225;-77
2022/10/03 15:17:51;;;;;;;1.87;1.23;;;18.50;37.40;;;;;;10482600;28;20240;-77
2022/10/03 15:22:59;;;;;;;2.50;1.40;;;18.50;38.20;;;;;;10481462;28;20225;-78
2022/10/03 15:28:05;;;;;;;4.93;1.70;;;18.40;37.90;;;;;;10480192;28;20282;-78
2022/10/03 15:33:28;;;;;;;3.60;1.90;;;18.40;38.80;;;;;;10475969;28;20311;-78
2022/10/03 15:38:37;;;;;;;3.37;1.37;;;18.40;37.80;;;;;;10480145;28;20282;-78
2022/10/03 15:43:51;;;;;;;2.87;1.70;;;18.40;37.90;;;;;;10471326;28;20708;-77
2022/10/03 15:48:56;;;;;;;2.67;1.40;;;18.30;37.70;;;;;;10473104;28;20239;-78
2022/10/03 15:54:01;;;;;;;4.27;1.87;;;18.30;39.00;;;;;;10471209;28;20232;-77
2022/10/03 15:59:08;;;;;;;6.27;3.20;;;18.40;39.00;;;;;;10470780;28;20220;-77
2022/10/03 16:04:19;;;;;;;5.03;3.60;;;18.40;38.40;;;;;;10471267;28;20239;-77
2022/10/03 16:09:30;;;;;;;3.03;1.80;;;18.30;38.00;;;;;;10468931;28;20853;-76
2022/10/03 16:14:40;;;;;;;2.40;1.53;;;18.30;38.30;;;;;;10471833;28;20227;-76
2022/10/03 16:19:53;;;;;;;3.40;1.90;;;18.20;37.80;;;;;;10467538;28;20240;-77
2022/10/03 16:25:06;;;;;;;1.90;1.30;;;18.10;37.40;;;;;;10469452;28;20232;-77
2022/10/03 16:30:20;;;;;;;2.93;1.60;;;18.10;37.80;;;;;;10465148;28;20241;-77
2022/10/03 16:35:34;;;;;;;3.60;1.73;;;18.00;37.70;;;;;;10471124;28;20244;-77
2022/10/03 16:40:37;;;;;;;2.77;1.63;;;17.90;38.20;;;;;;10467490;28;20259;-77
2022/10/03 16:45:44;;;;;;;2.73;1.80;;;17.90;39.30;;;;;;10469668;28;20248;-77
2022/10/03 16:50:52;;;;;;;3.70;1.80;;;17.90;39.10;;;;;;10471149;28;20316;-77
2022/10/03 16:55:59;;;;;;;2.67;2.10;;;17.90;39.20;;;;;;10470271;28;20229;-77
2022/10/03 17:01:04;;;;;;;2.97;1.90;;;17.90;39.40;;;;;;10465672;28;20225;-77
2022/10/03 17:06:32;;;;;;;2.57;2.10;;;17.90;40.00;;;;;;10478190;28;20592;-77
2022/10/03 17:11:38;;;;;;;2.40;2.20;;;17.90;39.90;;;;;;10467592;28;20236;-77
2022/10/03 17:16:47;;;;;;;14.57;13.07;;;17.80;40.10;;;;;;10466552;28;20355;-78
2022/10/03 17:21:54;;;;;;;10.67;6.10;;;17.90;40.10;;;;;;10472836;28;20236;-78
2022/10/03 17:27:04;;;;;;;4.20;3.80;;;17.90;40.20;;;;;;10473753;28;20236;-78
2022/10/03 17:32:14;;;;;;;4.43;3.70;;;17.80;40.10;;;;;;10479197;28;20229;-79
2022/10/03 17:37:59;;;;;;;3.60;2.97;;;17.80;40.40;;;;;;10483630;28;20250;-78
2022/10/03 17:43:35;;;;;;;4.07;2.30;;;17.70;39.60;;;;;;10478265;28;20304;-78
2022/10/03 17:48:43;;;;;;;4.77;2.50;;;17.70;39.40;;;;;;10471456;28;20711;-77
2022/10/03 17:53:51;;;;;;;2.40;2.10;;;17.60;39.90;;;;;;10473528;28;20582;-78
2022/10/03 17:59:04;;;;;;;2.67;2.00;;;17.60;40.00;;;;;;10481729;28;20940;-77
2022/10/03 18:04:17;;;;;;;4.10;2.30;;;17.60;40.10;;;;;;10472553;28;20602;-78
2022/10/03 18:09:27;;;;;;;7.63;4.13;;;17.50;39.90;;;;;;10475028;28;20565;-78
2022/10/03 18:14:41;;;;;;;3.83;2.83;;;17.50;39.90;;;;;;10476114;28;20299;-78
2022/10/03 18:20:15;;;;;;;3.57;2.30;;;17.40;39.90;;;;;;10476837;28;20743;-78
2022/10/03 18:31:16;;;;;;;3.43;3.10;;;17.30;40.20;;;;;;10463208;28;20822;-77
2022/10/03 18:36:24;;;;;;;5.67;4.23;;;17.20;40.30;;;;;;10468964;28;20802;-77
2022/10/03 18:41:28;;;;;;;5.37;4.67;;;17.20;40.20;;;;;;10464271;28;20274;-77
2022/10/03 18:46:39;;;;;;;4.33;3.93;;;17.10;40.20;;;;;;10465614;28;20255;-76
2022/10/03 18:51:45;;;;;;;4.80;4.30;;;17.10;40.10;;;;;;10468395;28;20232;-76
2022/10/03 18:57:08;;;;;;;5.87;4.37;;;16.90;40.00;;;;;;10475824;28;20227;-77
2022/10/03 19:02:19;;;;;;;3.97;3.53;;;16.80;39.70;;;;;;10475371;28;20305;-78
2022/10/03 19:07:25;;;;;;;4.07;3.67;;;16.60;39.90;;;;;;10471513;28;20239;-77
2022/10/03 19:12:34;;;;;;;4.73;3.63;;;16.50;40.10;;;;;;10472974;28;20286;-79
2022/10/03 19:17:48;;;;;;;3.60;3.07;;;16.40;39.80;;;;;;10480132;28;20239;-78
2022/10/03 19:22:59;;;;;;;5.60;3.50;;;16.30;40.00;;;;;;10476641;28;20232;-79
2022/10/03 19:28:12;;;;;;;4.33;3.93;;;16.20;39.70;;;;;;10475611;28;20252;-77
2022/10/03 19:33:21;;;;;;;3.47;3.10;;;16.00;39.50;;;;;;10478745;28;20243;-79
2022/10/03 19:38:28;;;;;;;4.53;3.93;;;15.70;40.00;;;;;;10484969;28;20262;-78
2022/10/03 19:43:44;;;;;;;3.60;3.30;;;15.60;40.20;;;;;;10483894;28;20258;-78
2022/10/03 19:48:50;;;;;;;6.20;4.20;;;15.50;40.10;;;;;;10478778;28;20228;-78
2022/10/03 19:53:56;;;;;;;5.57;3.90;;;15.40;40.20;;;;;;10478503;28;20243;-79
2022/10/03 19:59:04;;;;;;;6.87;4.03;;;15.30;40.00;;;;;;10480649;28;20224;-82
2022/10/03 20:04:07;;;;;;;6.43;5.10;;;15.10;39.90;;;;;;10477216;28;20239;-78
2022/10/03 20:09:20;;;;;;;6.13;4.73;;;14.90;39.90;;;;;;10475464;28;20236;-80
2022/10/03 20:14:30;;;;;;;6.13;4.90;;;14.70;40.10;;;;;;10478546;28;20242;-78
2022/10/03 20:19:53;;;;;;;7.87;5.20;;;14.50;40.30;;;;;;10474684;28;20239;-79
2022/10/03 20:24:57;;;;;;;5.97;5.40;;;14.30;40.50;;;;;;10470112;28;20315;-77
2022/10/03 20:30:08;;;;;;;6.10;5.27;;;14.20;40.50;;;;;;10458661;28;20236;-77
2022/10/03 20:35:14;;;;;;;5.03;4.50;;;14.10;40.80;;;;;;10464356;28;20240;-77
2022/10/03 20:40:34;;;;;;;6.20;4.93;;;14.10;40.80;;;;;;10460859;28;20225;-77
2022/10/03 20:45:39;;;;;;;9.40;5.07;;;14.00;40.80;;;;;;10464918;28;20596;-77
2022/10/03 20:50:46;;;;;;;4.30;3.90;;;13.90;40.80;;;;;;10458055;28;21185;-77
2022/10/03 20:55:53;;;;;;;4.60;4.20;;;13.80;40.90;;;;;;10462447;28;20236;-76
2022/10/03 21:01:03;;;;;;;9.77;4.33;;;13.80;41.10;;;;;;10457916;28;20236;-77
2022/10/03 21:06:17;;;;;;;4.67;3.97;;;13.80;41.00;;;;;;10461185;28;20233;-77
2022/10/03 21:11:23;;;;;;;5.53;3.80;;;13.80;41.20;;;;;;10460727;28;20239;-77
2022/10/03 21:16:33;;;;;;;6.50;4.17;;;13.80;41.00;;;;;;10458529;28;20231;-77
2022/10/03 21:21:40;;;;;;;5.37;4.10;;;13.80;41.10;;;;;;10459524;28;20985;-77
2022/10/03 21:26:48;;;;;;;5.27;4.50;;;13.80;40.90;;;;;;10460778;28;20232;-77
2022/10/03 21:32:04;;;;;;;4.53;3.93;;;13.70;40.80;;;;;;10458673;28;20236;-76
2022/10/03 21:37:15;;;;;;;5.87;4.00;;;13.70;40.80;;;;;;10461914;28;20250;-77
2022/10/03 21:42:24;;;;;;;4.90;3.80;;;13.70;40.60;;;;;;10460518;28;20228;-77
2022/10/03 21:47:39;;;;;;;5.67;4.00;;;13.60;40.30;;;;;;10461291;28;20236;-77
2022/10/03 21:53:02;;;;;;;6.50;3.60;;;13.50;40.30;;;;;;10465413;28;20242;-76
2022/10/03 21:58:19;;;;;;;4.67;3.20;;;13.40;40.70;;;;;;10463071;28;20825;-77
2022/10/03 22:03:28;;;;;;;4.30;3.40;;;13.30;40.90;;;;;;10462532;28;20234;-77
2022/10/03 22:08:35;;;;;;;4.53;3.43;;;13.20;40.80;;;;;;10462666;28;20236;-76
2022/10/03 22:13:43;;;;;;;4.53;3.33;;;13.10;40.90;;;;;;10461824;28;20232;-76
2022/10/03 22:19:12;;;;;;;3.43;3.17;;;13.00;40.90;;;;;;10460690;28;20787;-77
2022/10/03 22:24:25;;;;;;;3.53;3.23;;;13.00;40.90;;;;;;10462338;28;20240;-77
2022/10/03 22:29:35;;;;;;;3.63;3.00;;;12.90;40.90;;;;;;10461089;28;20278;-77
2022/10/03 22:34:50;;;;;;;3.37;3.07;;;12.90;41.00;;;;;;10458088;28;20282;-77
2022/10/03 22:39:55;;;;;;;3.70;3.20;;;12.90;41.10;;;;;;10457016;28;20286;-77
2022/10/03 22:44:58;;;;;;;3.37;3.03;;;12.90;40.90;;;;;;10461247;28;20720;-77
2022/10/03 22:50:07;;;;;;;3.67;3.27;;;12.80;40.80;;;;;;10461054;28;20236;-77
2022/10/03 22:55:14;;;;;;;3.87;3.30;;;12.80;40.80;;;;;;10462458;28;20312;-76
2022/10/03 23:00:21;;;;;;;3.53;2.93;;;12.70;40.90;;;;;;10463950;28;20245;-76
2022/10/03 23:05:39;;;;;;;3.80;3.20;;;12.70;40.90;;;;;;10457859;28;20236;-76
2022/10/03 23:10:49;;;;;;;6.67;3.47;;;12.70;40.80;;;;;;10459538;28;20239;-77
2022/10/03 23:16:01;;;;;;;4.10;2.97;;;12.60;40.70;;;;;;10455287;28;20228;-77
2022/10/03 23:21:08;;;;;;;3.80;3.50;;;12.50;40.70;;;;;;10457657;28;20269;-77
2022/10/03 23:26:44;;;;;;;3.43;3.13;;;12.40;40.90;;;;;;10458003;28;20233;-76
2022/10/03 23:32:01;;;;;;;6.20;3.57;;;12.40;41.00;;;;;;10457378;28;20290;-77
2022/10/03 23:37:38;;;;;;;3.53;3.20;;;12.30;40.90;;;;;;10464163;28;20228;-77
2022/10/03 23:42:43;;;;;;;4.80;3.07;;;12.20;41.00;;;;;;10467437;28;20224;-76
2022/10/03 23:47:52;;;;;;;2.80;2.60;;;12.20;41.20;;;;;;10469630;28;20724;-76
2022/10/03 23:52:58;;;;;;;3.47;3.07;;;12.20;41.30;;;;;;10469395;28;20240;-77
2022/10/03 23:58:02;;;;;;;3.63;3.20;;;12.10;41.20;;;;;;10468226;28;20236;-76
